Terminal Aerodrome Forecast
Issued by NWS Burlington, VT

Current Version | Previous Version | Text Only | Print | Product List | Glossary On
Versions: 1 2 3 4 5 6 7 8 9 10 11 12 13 14 15 16 17 18 19 20
336
FTUS41 KBTV 102157 AAB
TAFBTV
TAF AMD
KBTV 102157Z 1022/1118 35006KT 6SM -SHSN BR OVC035
      TEMPO 1022/1102 4SM -SN BR BKN025 OVC035
     FM110400 VRB04KT P6SM VCSH OVC025
     FM111200 32011KT P6SM VCSH OVC020=

USA.gov is the U.S. government's official web portal to all federal, state and local government web resources and services.